Wailea, Hawaii
Current Conditions -  °F | °C
As of 11:54 PM on Wednesday 26 Nov 2014 (Local Time) from PHOG Reporting Station
Scattered Clouds Scattered Clouds  
Wind Chill: 70°   Ceiling: Unl
Heat Index: 70°   Visibility: 10mi
Dew Point: 64°   Wind: 7mph
Humidity: 81%   Direction: 50°NE
Pressure: 30.1"   Gusts: NA
Location:  20.7651°N, 156.425°W
Report Text: PHOG 270954Z AUTO 05006KT 10SM FEW022 SCT043 21/18 A3010 RMK AO2 RAB00E12B42E52 SLP196 P0001 T02110178 402780206 TSNO $
Loading
Personal Weather Stations






























Interactive Weather Map New forecast layout! Learn more

10-Day Weather Forecast

Advertisements
Track Severe Weather on mobile